Time;durP1;ratioP1;P1;durP2;ratioP2;P2;SDS_P1;SDS_P2;PMS_P1;PMS_P2;Temp;Humidity;BMP_temperature;BMP_pressure;BME280_temperature;BME280_humidity;BME280_pressure;Samples;Min_cycle;Max_cycle;Signal;HPM_P1;HPM_P2
2022/01/13 00:00:54;;;;;;;40.20;20.48;;;;;;;2.54;91.34;103155.69;7397601;19;20015;-69
2022/01/13 00:03:23;;;;;;;43.63;20.88;;;;;;;2.56;91.64;103151.47;7397409;19;20487;-68
2022/01/13 00:05:54;;;;;;;43.53;20.67;;;;;;;2.56;90.67;103141.97;7396869;19;20040;-67
2022/01/13 00:08:22;;;;;;;43.88;22.08;;;;;;;2.58;91.36;103129.13;7397515;19;20019;-68
2022/01/13 00:10:50;;;;;;;41.63;19.58;;;;;;;2.59;91.62;103134.38;7397178;19;20022;-69
2022/01/13 00:13:24;;;;;;;40.63;20.88;;;;;;;2.57;91.81;103132.53;7397071;19;20018;-68
2022/01/13 00:16:22;;;;;;;37.03;20.90;;;;;;;2.58;91.67;103130.00;7396283;19;20021;-68
2022/01/13 00:18:49;;;;;;;42.28;22.33;;;;;;;2.63;91.38;103148.38;7395257;19;20089;-69
2022/01/13 00:21:31;;;;;;;47.75;23.80;;;;;;;2.63;91.30;103158.75;7397302;19;20018;-68
2022/01/13 00:24:01;;;;;;;45.00;21.90;;;;;;;2.63;91.64;103163.03;7397261;19;20036;-72
2022/01/13 00:26:32;;;;;;;47.95;22.95;;;;;;;2.65;91.50;103151.03;7396052;19;20018;-69
2022/01/13 00:29:02;;;;;;;41.75;22.50;;;;;;;2.66;91.65;103155.41;7397015;19;20031;-71
2022/01/13 00:31:42;;;;;;;45.50;24.55;;;;;;;2.68;91.83;103149.50;7396590;19;20022;-67
2022/01/13 00:34:10;;;;;;;47.30;22.92;;;;;;;2.69;91.75;103138.31;7396863;19;20014;-70
2022/01/13 00:36:43;;;;;;;49.63;25.15;;;;;;;2.71;91.96;103133.19;7395310;19;20014;-67
2022/01/13 00:39:14;;;;;;;48.67;24.52;;;;;;;2.70;91.66;103129.69;7395354;19;20036;-68
2022/01/13 00:41:43;;;;;;;41.95;22.83;;;;;;;2.71;91.49;103135.78;7396646;19;20037;-68
2022/01/13 00:44:11;;;;;;;44.10;23.63;;;;;;;2.71;91.48;103130.59;7394333;19;20018;-67
2022/01/13 00:46:47;;;;;;;51.00;23.58;;;;;;;2.73;92.18;103129.88;7395051;19;20018;-68
2022/01/13 00:49:16;;;;;;;46.55;22.65;;;;;;;2.74;91.86;103123.88;7396010;19;20022;-67
2022/01/13 00:51:47;;;;;;;50.70;23.65;;;;;;;2.73;91.51;103116.91;7395986;19;20011;-68
2022/01/13 00:54:16;;;;;;;47.30;25.13;;;;;;;2.73;91.96;103116.00;7396020;19;20037;-67
2022/01/13 00:56:45;;;;;;;54.78;25.63;;;;;;;2.73;91.74;103114.31;7395026;19;20040;-67
2022/01/13 00:59:15;;;;;;;50.08;25.75;;;;;;;2.73;92.02;103111.72;7393867;19;20014;-67
2022/01/13 01:01:45;;;;;;;47.45;23.90;;;;;;;2.73;91.96;103116.91;7395364;19;20370;-67
2022/01/13 01:04:14;;;;;;;48.15;24.92;;;;;;;2.75;92.21;103114.38;7396052;19;20014;-67
2022/01/13 01:06:43;;;;;;;51.08;25.67;;;;;;;2.78;93.09;103106.78;7394595;19;20046;-72
2022/01/13 01:09:19;;;;;;;49.80;24.27;;;;;;;2.80;92.33;103099.06;7395212;19;20010;-67
2022/01/13 01:11:49;;;;;;;50.72;24.73;;;;;;;2.83;92.44;103104.38;7395897;19;20036;-67
2022/01/13 01:14:19;;;;;;;49.05;24.40;;;;;;;2.83;92.09;103106.97;7393550;19;20022;-67
2022/01/13 01:16:48;;;;;;;46.40;24.50;;;;;;;2.83;92.04;103101.78;7393286;19;20036;-68
2022/01/13 01:19:25;;;;;;;45.20;25.10;;;;;;;2.82;91.96;103102.59;7393895;19;20081;-68
2022/01/13 01:25:01;;;;;;;54.28;25.30;;;;;;;2.81;91.96;103080.97;7394970;19;20014;-69
2022/01/13 01:27:33;;;;;;;56.03;25.65;;;;;;;2.82;92.42;103092.22;7395662;19;20019;-68
2022/01/13 01:30:07;;;;;;;53.47;25.77;;;;;;;2.77;91.75;103082.53;7395464;19;20040;-67
2022/01/13 01:32:38;;;;;;;50.28;24.58;;;;;;;2.81;91.73;103093.94;7395434;19;20021;-67
2022/01/13 01:35:13;;;;;;;52.63;23.63;;;;;;;2.82;92.50;103082.75;7394812;19;20094;-69
2022/01/13 01:37:43;;;;;;;51.20;25.00;;;;;;;2.83;92.35;103081.97;7392791;19;20023;-67
2022/01/13 01:40:16;;;;;;;49.83;24.90;;;;;;;2.82;92.36;103081.84;7394620;19;20019;-67
2022/01/13 01:42:45;;;;;;;53.08;24.30;;;;;;;2.83;91.98;103083.63;7394638;19;20018;-67
2022/01/13 01:45:15;;;;;;;52.08;25.23;;;;;;;2.85;92.22;103082.03;7394481;19;20014;-67
2022/01/13 01:47:44;;;;;;;49.70;23.95;;;;;;;2.85;92.47;103092.38;7392398;19;20081;-68
2022/01/13 01:50:21;;;;;;;49.67;25.85;;;;;;;2.85;91.64;103089.78;7394363;19;20089;-67
2022/01/13 01:52:52;;;;;;;55.40;26.17;;;;;;;2.86;92.36;103086.41;7394240;19;20487;-69
2022/01/13 01:55:23;;;;;;;50.28;25.92;;;;;;;2.85;91.55;103085.50;7394266;19;20019;-68
2022/01/13 01:57:53;;;;;;;57.30;27.15;;;;;;;2.80;92.11;103078.31;7394325;19;20018;-68
2022/01/13 02:00:24;;;;;;;58.85;25.77;;;;;;;2.84;92.07;103078.50;7393800;19;20497;-68
2022/01/13 02:02:55;;;;;;;52.47;25.00;;;;;;;2.84;91.89;103083.69;7394544;19;20015;-68
2022/01/13 02:05:23;;;;;;;51.20;25.55;;;;;;;2.86;91.40;103081.22;7393956;19;20018;-68
2022/01/13 02:07:51;;;;;;;56.22;25.80;;;;;;;2.86;91.93;103082.09;7395679;19;20040;-68
2022/01/13 02:10:22;;;;;;;51.47;25.95;;;;;;;2.85;91.42;103069.06;7394599;19;20018;-68
2022/01/13 02:13:00;;;;;;;51.63;24.60;;;;;;;2.85;91.95;103062.16;7397812;19;20032;-67
2022/01/13 02:15:34;;;;;;;52.92;25.25;;;;;;;2.87;91.71;103070.00;7393005;19;20047;-68
2022/01/13 02:18:05;;;;;;;55.00;25.67;;;;;;;2.87;91.49;103072.59;7393697;19;20045;-68
2022/01/13 02:20:51;;;;;;;50.05;23.98;;;;;;;2.86;90.68;103076.03;7394082;19;20019;-68
2022/01/13 02:23:37;;;;;;;49.35;23.13;;;;;;;2.85;90.59;103076.84;7401323;19;20029;-67
2022/01/13 02:26:09;;;;;;;48.92;24.98;;;;;;;2.85;91.18;103067.34;7400196;19;20014;-68
2022/01/13 02:28:38;;;;;;;46.45;22.48;;;;;;;2.84;91.12;103065.56;7401110;19;20033;-68
2022/01/13 02:31:07;;;;;;;54.85;24.15;;;;;;;2.85;90.94;103056.09;7400552;19;20029;-67
2022/01/13 02:33:35;;;;;;;50.03;24.00;;;;;;;2.85;91.62;103056.09;7400510;19;20029;-67
2022/01/13 02:36:08;;;;;;;49.80;23.73;;;;;;;2.83;91.31;103061.22;7399617;19;20018;-68
2022/01/13 02:38:36;;;;;;;45.85;22.45;;;;;;;2.83;90.95;103057.72;7399898;19;20019;-68
2022/01/13 02:41:05;;;;;;;48.58;24.48;;;;;;;2.81;91.38;103049.00;7400295;19;20048;-67
2022/01/13 02:43:34;;;;;;;50.40;23.95;;;;;;;2.85;91.31;103058.69;7400175;19;20042;-68
2022/01/13 02:46:18;;;;;;;52.00;24.23;;;;;;;2.84;90.81;103062.09;7399340;19;20018;-68
2022/01/13 02:48:48;;;;;;;47.83;23.65;;;;;;;2.84;90.92;103049.13;7400548;19;20019;-68
2022/01/13 02:51:19;;;;;;;47.92;23.48;;;;;;;2.84;91.14;103049.13;7400336;19;20011;-67
2022/01/13 02:53:48;;;;;;;42.03;22.02;;;;;;;2.83;90.55;103053.44;7400273;19;20026;-68
2022/01/13 02:56:16;;;;;;;49.97;23.08;;;;;;;2.82;90.08;103050.75;7398778;19;20025;-67
2022/01/13 02:58:45;;;;;;;48.13;21.73;;;;;;;2.80;89.88;103040.31;7397145;19;20010;-67
2022/01/13 03:01:14;;;;;;;43.35;22.73;;;;;;;2.80;90.78;103029.06;7399654;19;20014;-67
2022/01/13 03:03:44;;;;;;;51.50;22.85;;;;;;;2.79;90.10;103019.50;7399550;19;20040;-67
2022/01/13 03:06:14;;;;;;;42.15;21.98;;;;;;;2.77;90.62;103020.31;7397382;19;20019;-67
2022/01/13 03:08:49;;;;;;;46.20;21.90;;;;;;;2.77;90.45;103022.91;7399406;19;20402;-68
2022/01/13 03:11:18;;;;;;;46.33;22.13;;;;;;;2.77;91.03;103025.50;7399332;19;20026;-67
2022/01/13 03:13:46;;;;;;;48.60;22.27;;;;;;;2.76;90.37;103018.53;7399256;19;20022;-67
2022/01/13 03:16:17;;;;;;;41.35;20.80;;;;;;;2.77;91.19;103015.13;7397599;19;20015;-67
2022/01/13 03:18:45;;;;;;;41.35;22.10;;;;;;;2.76;90.95;103017.66;7398600;19;20040;-68
2022/01/13 03:21:13;;;;;;;46.63;21.80;;;;;;;2.75;90.62;103016.75;7400625;19;20021;-70
2022/01/13 03:23:42;;;;;;;43.45;22.13;;;;;;;2.74;90.75;103017.59;7400419;19;20123;-68
2022/01/13 03:26:13;;;;;;;46.35;22.95;;;;;;;2.73;90.14;103026.19;7397893;19;20382;-68
2022/01/13 03:28:51;;;;;;;42.83;23.20;;;;;;;2.73;90.66;103018.41;7399034;19;20471;-68
2022/01/13 03:31:20;;;;;;;38.70;20.42;;;;;;;2.69;89.80;103034.63;7398883;19;20021;-68
2022/01/13 03:33:49;;;;;;;49.33;22.67;;;;;;;2.72;90.53;103020.94;7395896;19;20014;-68
2022/01/13 03:36:17;;;;;;;43.08;22.10;;;;;;;2.70;90.36;103019.94;7397394;19;20035;-67
2022/01/13 03:38:46;;;;;;;44.17;23.60;;;;;;;2.69;90.89;103011.31;7397379;19;20491;-68
2022/01/13 03:41:17;;;;;;;50.00;22.73;;;;;;;2.69;90.39;103019.06;7398244;19;20378;-67
2022/01/13 03:43:45;;;;;;;43.53;22.52;;;;;;;2.69;90.51;103016.50;7398582;19;20361;-68
2022/01/13 03:46:14;;;;;;;37.80;20.65;;;;;;;2.66;89.34;103024.09;7397378;19;20021;-67
2022/01/13 03:48:43;;;;;;;46.28;21.77;;;;;;;2.65;90.13;103006.75;7397967;19;20157;-68
2022/01/13 03:51:11;;;;;;;47.40;24.20;;;;;;;2.63;90.60;103011.00;7397923;19;20022;-67
2022/01/13 03:54:10;;;;;;;46.58;21.95;;;;;;;2.61;89.02;103005.72;7397794;19;20356;-68
2022/01/13 03:57:22;;;;;;;44.45;22.55;;;;;;;2.62;89.26;103006.63;7396631;19;20018;-68
2022/01/13 04:00:48;;;;;;;49.40;25.67;;;;;;;2.63;90.19;103008.41;7396058;19;20032;-69
2022/01/13 04:03:16;;;;;;;43.10;22.73;;;;;;;2.61;89.57;102992.75;7397717;19;20019;-67
2022/01/13 04:06:03;;;;;;;48.83;22.15;;;;;;;2.60;89.68;103003.06;7395173;19;20032;-68
2022/01/13 04:08:32;;;;;;;41.28;23.10;;;;;;;2.59;90.01;103001.28;7396805;19;20505;-68
2022/01/13 04:11:18;;;;;;;42.85;22.90;;;;;;;2.57;90.00;103003.81;7397198;19;20036;-68
2022/01/13 04:13:52;;;;;;;48.20;22.90;;;;;;;2.57;90.22;103014.19;7397586;19;20029;-68
2022/01/13 04:16:27;;;;;;;41.42;20.45;;;;;;;2.57;90.41;103013.31;7396134;19;20010;-68
2022/01/13 04:18:58;;;;;;;48.42;22.95;;;;;;;2.52;89.67;103004.44;7396883;19;20010;-68
2022/01/13 04:21:26;;;;;;;43.78;23.42;;;;;;;2.57;90.07;103009.00;7397271;19;20014;-68
2022/01/13 04:23:57;;;;;;;43.75;24.20;;;;;;;2.57;90.61;103010.72;7396922;19;20022;-68
2022/01/13 04:26:28;;;;;;;42.92;22.33;;;;;;;2.54;90.24;103002.78;7396439;19;20029;-68
2022/01/13 04:29:04;;;;;;;49.83;25.33;;;;;;;2.54;89.61;103002.78;7396185;19;20480;-68
2022/01/13 04:31:35;;;;;;;44.85;23.15;;;;;;;2.53;90.18;102995.84;7397734;19;20367;-68
2022/01/13 04:34:03;;;;;;;45.08;22.95;;;;;;;2.55;90.25;102997.69;7396800;19;20048;-68
2022/01/13 04:36:32;;;;;;;43.33;22.23;;;;;;;2.55;90.74;102991.59;7395282;19;20050;-68
2022/01/13 04:39:00;;;;;;;45.55;22.23;;;;;;;2.54;89.83;103005.38;7395117;19;20033;-68
2022/01/13 04:41:35;;;;;;;50.20;22.77;;;;;;;2.53;90.03;102995.84;7395545;19;20032;-68
2022/01/13 04:44:05;;;;;;;53.55;22.85;;;;;;;2.53;90.84;103001.03;7394930;19;20026;-68
2022/01/13 04:46:36;;;;;;;45.78;23.58;;;;;;;2.53;90.18;103001.03;7394752;19;20044;-67
2022/01/13 04:49:04;;;;;;;50.25;23.67;;;;;;;2.53;90.83;102995.84;7396280;19;20015;-68
2022/01/13 04:51:33;;;;;;;51.83;24.35;;;;;;;2.54;90.76;102990.72;7395962;19;20011;-67
2022/01/13 04:54:01;;;;;;;46.20;21.88;;;;;;;2.55;90.50;102992.50;7395629;19;20019;-68
2022/01/13 04:56:37;;;;;;;46.92;23.45;;;;;;;2.53;90.73;102981.16;7394719;19;20033;-69
2022/01/13 04:59:06;;;;;;;49.80;22.58;;;;;;;2.55;90.57;102987.31;7395617;19;20096;-67
2022/01/13 05:01:38;;;;;;;46.75;22.50;;;;;;;2.53;90.34;102978.56;7396128;19;20040;-69
2022/01/13 05:04:07;;;;;;;43.03;22.40;;;;;;;2.53;91.00;102981.16;7394787;19;20448;-67
2022/01/13 05:06:36;;;;;;;43.80;22.42;;;;;;;2.52;90.70;102989.75;7394401;19;20014;-67
2022/01/13 05:09:04;;;;;;;42.92;21.92;;;;;;;2.53;91.10;102985.47;7395022;19;20015;-66
2022/01/13 05:11:33;;;;;;;42.17;20.33;;;;;;;2.53;91.35;102990.66;7395050;19;20040;-68
2022/01/13 05:14:01;;;;;;;42.40;20.55;;;;;;;2.53;90.92;102985.47;7395168;19;20014;-68
2022/01/13 05:16:35;;;;;;;45.63;22.83;;;;;;;2.52;90.67;102975.91;7393617;19;20414;-66
2022/01/13 05:19:17;;;;;;;;;;;;;;;2.51;90.86;102976.72;7395414;19;20074;-67
2022/01/13 05:22:15;;;;;;;44.47;22.05;;;;;;;2.51;91.36;102982.78;7395721;19;19922;-67
2022/01/13 05:24:35;;;;;;;40.72;19.90;;;;;;;2.51;91.20;102984.50;7394369;19;20011;-67
2022/01/13 05:27:04;;;;;;;52.40;24.88;;;;;;;2.49;91.23;102978.34;7393331;19;20022;-68
2022/01/13 05:29:32;;;;;;;41.17;21.83;;;;;;;2.49;91.28;102979.25;7393636;19;20447;-67
2022/01/13 05:32:00;;;;;;;44.10;22.10;;;;;;;2.51;91.67;102979.31;7394378;19;20036;-69
2022/01/13 05:34:38;;;;;;;41.35;21.60;;;;;;;2.50;91.52;102974.94;7393319;19;20513;-68
2022/01/13 05:37:06;;;;;;;46.50;24.05;;;;;;;2.50;91.74;102981.00;7392827;19;20022;-68
2022/01/13 05:39:34;;;;;;;52.63;22.27;;;;;;;2.50;91.94;102986.19;7393317;19;20015;-68
2022/01/13 05:42:03;;;;;;;47.28;22.02;;;;;;;2.50;91.72;102986.19;7393958;19;20018;-67
2022/01/13 05:44:37;;;;;;;45.35;21.83;;;;;;;2.49;91.53;102983.53;7393788;19;20010;-67
2022/01/13 05:47:05;;;;;;;43.53;21.02;;;;;;;2.49;91.41;102991.31;7392349;19;20026;-68
2022/01/13 05:49:36;;;;;;;48.70;22.92;;;;;;;2.48;91.58;102992.09;7393954;19;20385;-68
2022/01/13 05:52:05;;;;;;;44.00;21.85;;;;;;;2.47;91.84;102990.34;7394059;19;20431;-67
2022/01/13 05:54:35;;;;;;;46.42;22.75;;;;;;;2.47;91.96;102993.81;7393432;19;20019;-67
2022/01/13 05:57:03;;;;;;;44.70;22.15;;;;;;;2.48;92.33;103002.47;7395828;19;20018;-69
2022/01/13 05:59:32;;;;;;;48.30;21.73;;;;;;;2.48;92.16;103002.47;7399293;19;20479;-68
2022/01/13 06:02:01;;;;;;;44.47;21.42;;;;;;;2.49;92.23;103007.75;7400754;19;20015;-67
2022/01/13 06:04:29;;;;;;;53.10;22.27;;;;;;;2.49;92.21;102996.47;7400710;19;20495;-67
2022/01/13 06:07:00;;;;;;;44.90;20.55;;;;;;;2.48;92.08;103002.47;7397473;19;20451;-67
2022/01/13 06:09:28;;;;;;;54.25;25.17;;;;;;;2.48;92.24;102992.09;7399443;19;20030;-68
2022/01/13 06:12:01;;;;;;;54.42;24.08;;;;;;;2.47;92.30;103005.91;7400607;19;20021;-68
2022/01/13 06:14:29;;;;;;;49.42;22.67;;;;;;;2.43;92.40;103000.56;7400592;19;20095;-68
2022/01/13 06:16:58;;;;;;;53.90;23.58;;;;;;;2.46;92.21;103015.38;7397284;19;20010;-67
2022/01/13 06:19:26;;;;;;;58.25;23.25;;;;;;;2.46;92.41;102989.44;7398127;19;20028;-67
2022/01/13 06:21:54;;;;;;;49.78;23.35;;;;;;;2.43;92.84;102986.72;7399014;19;20021;-67
2022/01/13 06:24:25;;;;;;;52.28;23.83;;;;;;;2.48;92.75;103003.38;7398984;19;20033;-68
2022/01/13 06:26:53;;;;;;;52.00;23.65;;;;;;;2.47;92.67;103001.59;7401541;19;20023;-69
2022/01/13 06:29:21;;;;;;;51.20;23.27;;;;;;;2.48;93.09;102993.03;7401367;19;20037;-68
2022/01/13 06:31:50;;;;;;;50.28;23.77;;;;;;;2.50;93.28;103001.72;7399671;19;20018;-68
2022/01/13 06:34:18;;;;;;;51.42;24.65;;;;;;;2.51;92.86;102981.91;7399669;19;20040;-68
2022/01/13 06:36:46;;;;;;;63.60;26.83;;;;;;;2.48;92.58;102990.44;7398943;19;20018;-68
2022/01/13 06:39:14;;;;;;;52.38;24.45;;;;;;;2.50;92.94;102981.00;7399827;19;20018;-68
2022/01/13 06:41:45;;;;;;;53.50;23.17;;;;;;;2.51;93.05;102981.91;7399498;19;20018;-68
2022/01/13 06:44:14;;;;;;;54.90;24.40;;;;;;;2.49;92.95;102993.88;7399658;19;20018;-68
2022/01/13 06:46:42;;;;;;;55.25;23.35;;;;;;;2.50;93.13;103003.44;7398182;19;20022;-68
2022/01/13 06:49:10;;;;;;;57.65;24.33;;;;;;;2.50;93.24;102999.13;7399791;19;20015;-67
2022/01/13 06:51:38;;;;;;;56.55;25.13;;;;;;;2.50;93.40;103013.81;7400265;19;20018;-68
2022/01/13 06:54:06;;;;;;;59.22;24.77;;;;;;;2.50;93.39;103021.59;7401643;19;20025;-66
2022/01/13 06:56:35;;;;;;;55.40;24.77;;;;;;;2.48;93.46;103024.13;7398737;19;20386;-69
2022/01/13 06:59:10;;;;;;;61.40;26.05;;;;;;;2.50;93.12;103029.38;7399897;19;20011;-66
2022/01/13 07:02:01;;;;;;;60.75;26.25;;;;;;;2.42;93.37;103019.50;7399088;19;20088;-67
2022/01/13 07:04:30;;;;;;;56.75;27.15;;;;;;;2.49;93.51;103038.84;7398473;19;20480;-67
2022/01/13 07:06:59;;;;;;;55.97;24.77;;;;;;;2.51;93.73;103029.44;7396720;19;20025;-67
2022/01/13 07:09:27;;;;;;;52.55;24.48;;;;;;;2.50;93.27;103019.00;7399883;19;20015;-69
2022/01/13 07:11:56;;;;;;;62.33;26.23;;;;;;;2.49;93.35;103023.31;7400127;19;20021;-67
2022/01/13 07:14:26;;;;;;;59.10;25.55;;;;;;;2.50;93.75;103016.41;7398921;19;20014;-67
2022/01/13 07:17:01;;;;;;;54.60;24.70;;;;;;;2.49;93.49;103025.91;7397079;19;20010;-68
2022/01/13 07:19:30;;;;;;;61.95;25.10;;;;;;;2.51;93.77;103028.56;7398567;19;20018;-68
2022/01/13 07:21:58;;;;;;;62.08;25.50;;;;;;;2.52;93.74;103025.16;7399072;19;20014;-68
2022/01/13 07:24:26;;;;;;;53.25;24.50;;;;;;;2.53;94.02;103021.75;7398527;19;20019;-68
2022/01/13 07:26:54;;;;;;;61.60;24.58;;;;;;;2.53;93.93;103022.63;7396512;19;20546;-68
2022/01/13 07:29:23;;;;;;;53.88;24.67;;;;;;;2.54;93.83;103028.69;7398267;19;20033;-68
2022/01/13 07:31:53;;;;;;;52.75;24.77;;;;;;;2.53;94.18;103027.81;7398193;19;20018;-67
2022/01/13 07:34:22;;;;;;;57.40;25.67;;;;;;;2.53;94.19;103022.63;7398271;19;20019;-67
2022/01/13 07:36:50;;;;;;;58.67;24.20;;;;;;;2.54;94.19;103021.81;7396713;19;20018;-68
2022/01/13 07:39:18;;;;;;;57.45;26.15;;;;;;;2.56;94.27;103033.13;7397997;19;20036;-67
2022/01/13 07:41:46;;;;;;;59.78;25.70;;;;;;;2.53;94.21;103021.75;7395708;19;20022;-67
2022/01/13 07:44:16;;;;;;;61.20;24.77;;;;;;;2.58;94.44;103033.22;7397529;19;20029;-67
2022/01/13 07:46:44;;;;;;;55.60;25.23;;;;;;;2.59;94.60;103038.47;7396458;19;20022;-67
2022/01/13 07:49:15;;;;;;;62.72;25.52;;;;;;;2.56;94.75;103024.47;7397729;19;20040;-67
2022/01/13 07:51:43;;;;;;;62.10;26.15;;;;;;;2.63;94.65;103029.16;7398069;19;20015;-67
2022/01/13 07:54:11;;;;;;;62.20;25.25;;;;;;;2.65;94.59;103022.31;7397861;19;20011;-67
2022/01/13 07:56:40;;;;;;;60.75;27.00;;;;;;;2.65;94.50;103027.50;7396228;19;20398;-68
2022/01/13 07:59:08;;;;;;;66.22;27.50;;;;;;;2.67;94.74;103037.97;7397952;19;20363;-67
2022/01/13 08:01:36;;;;;;;60.58;24.70;;;;;;;2.69;94.74;103034.63;7396361;19;20019;-68
2022/01/13 08:04:04;;;;;;;62.70;23.45;;;;;;;2.71;94.94;103035.56;7397301;19;20036;-68
2022/01/13 08:06:35;;;;;;;58.17;25.20;;;;;;;2.70;94.72;103028.59;7396164;19;20442;-69
2022/01/13 08:09:03;;;;;;;63.85;24.85;;;;;;;2.74;94.84;103038.31;7397304;19;20022;-68
2022/01/13 08:11:31;;;;;;;62.15;24.75;;;;;;;2.76;94.91;103030.63;7397429;19;20014;-68
2022/01/13 08:13:59;;;;;;;49.92;23.23;;;;;;;2.79;95.00;103043.72;7397586;19;20011;-68
2022/01/13 08:16:36;;;;;;;53.17;23.73;;;;;;;2.80;94.73;103048.09;7395536;19;20029;-67
2022/01/13 08:21:48;;;;;;;63.00;24.10;;;;;;;2.79;94.99;103033.34;7395474;19;20014;-67
2022/01/13 08:24:16;;;;;;;55.28;23.65;;;;;;;2.85;94.77;103035.34;7397406;19;20014;-67
2022/01/13 08:26:45;;;;;;;53.83;23.58;;;;;;;2.84;94.37;103031.84;7395522;19;20050;-68
2022/01/13 08:29:13;;;;;;;58.30;25.27;;;;;;;2.84;94.69;103021.47;7396049;19;20015;-67
2022/01/13 08:31:41;;;;;;;55.30;23.58;;;;;;;2.88;94.66;103032.88;7396576;19;20017;-68
2022/01/13 08:34:09;;;;;;;58.95;23.92;;;;;;;2.85;94.71;103031.03;7396356;19;20381;-68
2022/01/13 08:36:37;;;;;;;60.85;25.10;;;;;;;2.89;94.54;103038.16;7394625;19;20483;-68
2022/01/13 08:39:08;;;;;;;56.55;24.77;;;;;;;2.94;94.60;103056.50;7396579;19;20018;-69
2022/01/13 08:41:37;;;;;;;59.28;24.52;;;;;;;2.95;94.69;103060.88;7395991;19;20010;-69
2022/01/13 08:44:05;;;;;;;62.15;24.95;;;;;;;2.98;94.70;103071.41;7396368;19;20011;-68
2022/01/13 08:46:34;;;;;;;68.97;24.85;;;;;;;2.98;94.22;103057.53;7394952;19;20022;-68
2022/01/13 08:49:02;;;;;;;59.42;23.38;;;;;;;2.99;94.38;103065.41;7395992;19;20022;-68
2022/01/13 08:51:30;;;;;;;57.78;23.98;;;;;;;3.00;94.30;103059.41;7395611;19;20014;-68
2022/01/13 08:53:58;;;;;;;58.25;23.58;;;;;;;3.00;93.69;103056.81;7395882;19;20033;-68
2022/01/13 08:56:29;;;;;;;61.67;25.08;;;;;;;2.96;93.85;103047.13;7394923;19;20015;-68
2022/01/13 08:58:58;;;;;;;59.92;24.05;;;;;;;3.01;94.01;103053.41;7395528;19;20483;-68
2022/01/13 09:01:26;;;;;;;57.97;23.02;;;;;;;3.01;93.67;103050.81;7394637;19;20014;-68
2022/01/13 09:03:54;;;;;;;56.17;23.75;;;;;;;3.03;93.81;103041.41;7395349;19;20018;-68
2022/01/13 09:06:22;;;;;;;57.60;22.70;;;;;;;3.04;94.19;103037.09;7395075;19;20023;-68
2022/01/13 09:08:51;;;;;;;63.38;26.23;;;;;;;3.05;93.83;103044.06;7395189;19;20354;-69
2022/01/13 09:11:19;;;;;;;63.47;25.60;;;;;;;3.05;93.76;103054.44;7395266;19;20033;-66
2022/01/13 09:13:56;;;;;;;72.68;26.17;;;;;;;3.04;93.01;103053.53;7395338;19;20019;-67
2022/01/13 09:16:25;;;;;;;64.95;25.95;;;;;;;3.07;93.70;103063.16;7394118;19;20018;-68
2022/01/13 09:19:11;;;;;;;71.05;26.85;;;;;;;3.06;92.96;103062.28;7395424;19;20040;-68
2022/01/13 09:21:40;;;;;;;67.03;26.95;;;;;;;3.05;92.77;103068.28;7394145;19;20019;-68
2022/01/13 09:24:11;;;;;;;68.68;27.45;;;;;;;3.03;92.74;103077.72;7394416;19;20382;-67
2022/01/13 09:26:40;;;;;;;69.53;26.83;;;;;;;3.01;92.82;103073.25;7394112;19;20022;-68
2022/01/13 09:29:12;;;;;;;69.78;27.13;;;;;;;3.06;93.65;103080.44;7394456;19;20482;-68
2022/01/13 09:31:42;;;;;;;76.22;28.25;;;;;;;3.07;93.44;103071.84;7401809;19;20046;-69
2022/01/13 09:34:12;;;;;;;70.63;28.60;;;;;;;3.08;93.28;103063.25;7401401;19;20494;-68
2022/01/13 09:36:40;;;;;;;69.70;24.63;;;;;;;3.06;92.82;103056.22;7400203;19;20036;-69
2022/01/13 09:39:10;;;;;;;71.40;25.45;;;;;;;3.07;93.03;103045.00;7401934;19;20025;-67
2022/01/13 09:41:43;;;;;;;76.82;27.80;;;;;;;3.07;93.10;103045.91;7399752;19;20515;-68
2022/01/13 09:44:15;;;;;;;70.32;25.90;;;;;;;3.06;92.82;103043.25;7401688;19;20015;-67
2022/01/13 09:46:45;;;;;;;76.25;26.38;;;;;;;3.08;92.78;103044.19;7400384;19;20017;-67
2022/01/13 09:49:13;;;;;;;66.80;25.67;;;;;;;3.09;92.83;103036.47;7401747;19;20027;-68
2022/01/13 09:51:45;;;;;;;71.68;27.65;;;;;;;3.09;92.40;103046.84;7401946;19;20014;-68
2022/01/13 09:54:14;;;;;;;70.80;25.55;;;;;;;3.10;93.33;103030.47;7402547;19;20362;-68
2022/01/13 09:56:43;;;;;;;68.43;25.98;;;;;;;3.13;93.16;103036.63;7401352;19;20018;-68
2022/01/13 09:59:14;;;;;;;74.82;28.17;;;;;;;3.15;92.96;103029.81;7402656;19;20498;-68
2022/01/13 10:01:42;;;;;;;75.30;30.05;;;;;;;3.17;92.66;103034.25;7400568;19;20022;-69
2022/01/13 10:04:10;;;;;;;73.45;28.40;;;;;;;3.16;92.43;103039.34;7401537;19;20029;-68
2022/01/13 10:06:47;;;;;;;71.30;28.83;;;;;;;3.15;92.57;103027.22;7399974;19;20141;-68
2022/01/13 10:09:16;;;;;;;75.75;28.08;;;;;;;3.19;92.80;103024.81;7402101;19;20015;-68
2022/01/13 10:11:53;;;;;;;79.00;30.02;;;;;;;3.19;92.37;103013.56;7401071;19;20077;-68
2022/01/13 10:17:10;;;;;;;78.22;28.13;;;;;;;3.20;91.88;103007.56;7398747;19;20019;-67
2022/01/13 10:19:41;;;;;;;78.75;29.13;;;;;;;3.16;92.26;103003.94;7398240;19;20018;-67
2022/01/13 10:22:11;;;;;;;72.78;27.42;;;;;;;3.19;91.60;103010.97;7397953;19;20011;-68
2022/01/13 10:24:41;;;;;;;75.85;30.08;;;;;;;3.20;92.20;103008.44;7400978;19;20019;-69
2022/01/13 10:27:11;;;;;;;80.32;31.38;;;;;;;3.19;92.23;103011.84;7399442;19;20041;-68
2022/01/13 10:29:45;;;;;;;79.97;29.98;;;;;;;3.22;92.38;103003.31;7400761;19;20026;-68
2022/01/13 10:32:15;;;;;;;76.65;28.75;;;;;;;3.22;92.73;102996.44;7400751;19;20396;-67
2022/01/13 10:34:46;;;;;;;78.38;29.63;;;;;;;3.24;92.06;103005.16;7400437;19;20014;-68
2022/01/13 10:37:18;;;;;;;79.55;28.27;;;;;;;3.24;92.11;103017.25;7398384;19;20019;-73
2022/01/13 10:40:00;;;;;;;75.65;28.67;;;;;;;3.23;91.61;103013.75;7400042;19;20032;-68
2022/01/13 10:45:31;;;;;;;78.63;30.02;;;;;;;3.21;91.90;102993.75;7396627;19;20018;-68
2022/01/13 10:48:02;;;;;;;82.80;31.67;;;;;;;3.21;92.07;102985.97;7400288;19;20015;-70
2022/01/13 10:50:33;;;;;;;77.40;29.00;;;;;;;3.21;91.77;102996.34;7400167;19;20011;-68
2022/01/13 10:53:04;;;;;;;71.47;29.10;;;;;;;3.22;92.52;102983.47;7400328;19;20069;-69
2022/01/13 10:55:36;;;;;;;82.28;31.25;;;;;;;3.21;91.86;102984.28;7399626;19;20022;-69
2022/01/13 10:58:05;;;;;;;78.60;28.77;;;;;;;3.19;92.00;102982.44;7399965;19;20047;-68
2022/01/13 11:00:37;;;;;;;77.18;29.60;;;;;;;3.22;91.89;103003.31;7399184;19;20377;-69
2022/01/13 11:03:09;;;;;;;80.70;29.67;;;;;;;3.17;91.96;102979.78;7398503;19;20014;-68
2022/01/13 11:05:41;;;;;;;70.95;27.15;;;;;;;3.24;92.20;102999.09;7403238;19;20024;-69
2022/01/13 11:08:11;;;;;;;74.80;27.90;;;;;;;3.25;92.26;102985.31;7399818;19;20014;-69
2022/01/13 11:10:49;;;;;;;75.38;28.35;;;;;;;3.26;92.21;102984.47;7399051;19;20018;-69
2022/01/13 11:13:21;;;;;;;74.53;28.27;;;;;;;3.19;91.66;102964.28;7399187;19;20011;-69
2022/01/13 11:15:55;;;;;;;76.40;29.42;;;;;;;3.26;91.97;102972.41;7398402;19;20036;-69
2022/01/13 11:18:25;;;;;;;74.28;27.65;;;;;;;3.23;91.91;102955.81;7396560;19;20405;-68
2022/01/13 11:20:54;;;;;;;77.90;26.92;;;;;;;3.29;91.96;102966.44;7399071;19;20040;-68
2022/01/13 11:23:23;;;;;;;70.60;28.38;;;;;;;3.28;92.30;102953.41;7397464;19;20487;-69
2022/01/13 11:25:54;;;;;;;81.10;29.85;;;;;;;3.28;91.96;102938.72;7398116;19;20022;-69
2022/01/13 11:28:23;;;;;;;83.07;28.95;;;;;;;3.35;91.98;102951.16;7398610;19;20022;-68
2022/01/13 11:30:55;;;;;;;75.40;27.77;;;;;;;3.32;91.96;102944.94;7397334;19;20361;-69
2022/01/13 11:33:25;;;;;;;74.80;27.58;;;;;;;3.38;91.46;102946.09;7397777;19;20022;-69
2022/01/13 11:35:56;;;;;;;79.78;28.55;;;;;;;3.39;92.00;102941.81;7397416;19;20015;-67
2022/01/13 11:38:27;;;;;;;75.05;27.88;;;;;;;3.43;90.96;102946.28;7398191;19;20019;-67
2022/01/13 11:40:56;;;;;;;75.72;27.08;;;;;;;3.45;91.86;102934.28;7398396;19;20014;-68
2022/01/13 11:43:34;;;;;;;74.95;26.80;;;;;;;3.47;91.71;102936.94;7397945;19;20056;-67
2022/01/13 11:46:19;;;;;;;76.60;29.75;;;;;;;3.48;90.75;102928.34;7398627;19;20015;-72